sensor_id;sensor_type;location;lat;lon;timestamp;P1;durP1;ratioP1;P2;durP2;ratioP2
5456;SDS011;2751;49.802;9.944;2022-09-17T00:01:18;2.97;;;1.20;;
5456;SDS011;2751;49.802;9.944;2022-09-17T00:03:50;2.80;;;1.20;;
5456;SDS011;2751;49.802;9.944;2022-09-17T00:06:19;3.43;;;1.43;;
5456;SDS011;2751;49.802;9.944;2022-09-17T00:08:47;2.27;;;1.53;;
5456;SDS011;2751;49.802;9.944;2022-09-17T00:11:15;6.83;;;1.97;;
5456;SDS011;2751;49.802;9.944;2022-09-17T00:13:45;1.57;;;1.40;;
5456;SDS011;2751;49.802;9.944;2022-09-17T00:16:19;1.73;;;1.57;;
5456;SDS011;2751;49.802;9.944;2022-09-17T00:18:49;1.50;;;1.27;;
5456;SDS011;2751;49.802;9.944;2022-09-17T00:21:16;2.80;;;1.70;;
5456;SDS011;2751;49.802;9.944;2022-09-17T00:23:44;2.63;;;1.13;;
5456;SDS011;2751;49.802;9.944;2022-09-17T00:26:11;1.40;;;1.30;;
5456;SDS011;2751;49.802;9.944;2022-09-17T00:28:39;3.23;;;1.40;;
5456;SDS011;2751;49.802;9.944;2022-09-17T00:31:09;5.50;;;1.20;;
5456;SDS011;2751;49.802;9.944;2022-09-17T00:33:37;2.00;;;1.50;;
5456;SDS011;2751;49.802;9.944;2022-09-17T00:36:04;1.57;;;1.47;;
5456;SDS011;2751;49.802;9.944;2022-09-17T00:38:31;3.13;;;1.57;;
5456;SDS011;2751;49.802;9.944;2022-09-17T00:40:58;1.10;;;1.00;;
5456;SDS011;2751;49.802;9.944;2022-09-17T00:43:32;4.40;;;1.30;;
5456;SDS011;2751;49.802;9.944;2022-09-17T00:46:01;1.47;;;1.10;;
5456;SDS011;2751;49.802;9.944;2022-09-17T00:48:29;1.70;;;1.20;;
5456;SDS011;2751;49.802;9.944;2022-09-17T00:50:57;10.03;;;1.53;;
5456;SDS011;2751;49.802;9.944;2022-09-17T00:53:26;1.10;;;1.00;;
5456;SDS011;2751;49.802;9.944;2022-09-17T00:55:56;1.63;;;1.30;;
5456;SDS011;2751;49.802;9.944;2022-09-17T00:58:28;2.70;;;1.00;;
5456;SDS011;2751;49.802;9.944;2022-09-17T01:00:57;4.17;;;1.50;;
5456;SDS011;2751;49.802;9.944;2022-09-17T01:03:25;2.23;;;1.47;;
5456;SDS011;2751;49.802;9.944;2022-09-17T01:05:54;1.87;;;1.30;;
5456;SDS011;2751;49.802;9.944;2022-09-17T01:08:32;3.10;;;1.10;;
5456;SDS011;2751;49.802;9.944;2022-09-17T01:11:24;2.17;;;1.60;;
5456;SDS011;2751;49.802;9.944;2022-09-17T01:14:01;2.70;;;1.20;;
5456;SDS011;2751;49.802;9.944;2022-09-17T01:16:40;2.33;;;1.40;;
5456;SDS011;2751;49.802;9.944;2022-09-17T01:19:20;4.10;;;1.50;;
5456;SDS011;2751;49.802;9.944;2022-09-17T01:22:10;5.07;;;1.60;;
5456;SDS011;2751;49.802;9.944;2022-09-17T01:24:46;2.03;;;1.40;;
5456;SDS011;2751;49.802;9.944;2022-09-17T01:27:21;3.90;;;1.37;;
5456;SDS011;2751;49.802;9.944;2022-09-17T01:30:18;1.13;;;1.13;;
5456;SDS011;2751;49.802;9.944;2022-09-17T01:33:00;4.40;;;1.20;;
5456;SDS011;2751;49.802;9.944;2022-09-17T01:35:35;1.63;;;1.40;;
5456;SDS011;2751;49.802;9.944;2022-09-17T01:38:14;1.87;;;1.17;;
5456;SDS011;2751;49.802;9.944;2022-09-17T01:40:53;2.07;;;1.70;;
5456;SDS011;2751;49.802;9.944;2022-09-17T01:43:28;2.07;;;1.50;;
5456;SDS011;2751;49.802;9.944;2022-09-17T01:46:02;4.50;;;1.60;;
5456;SDS011;2751;49.802;9.944;2022-09-17T01:48:35;1.87;;;1.10;;
5456;SDS011;2751;49.802;9.944;2022-09-17T01:51:06;1.93;;;1.20;;
5456;SDS011;2751;49.802;9.944;2022-09-17T01:53:36;1.60;;;1.10;;
5456;SDS011;2751;49.802;9.944;2022-09-17T01:56:11;1.33;;;1.03;;
5456;SDS011;2751;49.802;9.944;2022-09-17T01:58:42;5.83;;;1.80;;
5456;SDS011;2751;49.802;9.944;2022-09-17T02:01:14;1.67;;;1.37;;
5456;SDS011;2751;49.802;9.944;2022-09-17T02:03:47;5.90;;;1.57;;
5456;SDS011;2751;49.802;9.944;2022-09-17T02:06:20;1.70;;;1.60;;
5456;SDS011;2751;49.802;9.944;2022-09-17T02:08:51;2.93;;;1.50;;
5456;SDS011;2751;49.802;9.944;2022-09-17T02:11:22;3.63;;;1.50;;
5456;SDS011;2751;49.802;9.944;2022-09-17T02:13:51;1.90;;;1.20;;
5456;SDS011;2751;49.802;9.944;2022-09-17T02:16:23;1.00;;;1.00;;
5456;SDS011;2751;49.802;9.944;2022-09-17T02:18:53;1.17;;;1.07;;
5456;SDS011;2751;49.802;9.944;2022-09-17T02:21:26;3.07;;;1.20;;
5456;SDS011;2751;49.802;9.944;2022-09-17T02:23:56;6.30;;;1.63;;
5456;SDS011;2751;49.802;9.944;2022-09-17T02:26:30;5.10;;;1.63;;
5456;SDS011;2751;49.802;9.944;2022-09-17T02:29:01;2.30;;;1.20;;
5456;SDS011;2751;49.802;9.944;2022-09-17T02:31:34;4.60;;;1.50;;
5456;SDS011;2751;49.802;9.944;2022-09-17T02:34:01;4.17;;;1.23;;
5456;SDS011;2751;49.802;9.944;2022-09-17T02:36:29;4.47;;;1.27;;
5456;SDS011;2751;49.802;9.944;2022-09-17T02:38:59;1.20;;;1.00;;
5456;SDS011;2751;49.802;9.944;2022-09-17T02:41:30;1.63;;;1.30;;
5456;SDS011;2751;49.802;9.944;2022-09-17T02:44:12;1.20;;;0.97;;
5456;SDS011;2751;49.802;9.944;2022-09-17T02:46:52;3.67;;;1.40;;
5456;SDS011;2751;49.802;9.944;2022-09-17T02:49:52;13.53;;;3.10;;
5456;SDS011;2751;49.802;9.944;2022-09-17T02:52:35;3.00;;;1.00;;
5456;SDS011;2751;49.802;9.944;2022-09-17T02:55:15;1.53;;;1.00;;
5456;SDS011;2751;49.802;9.944;2022-09-17T02:57:45;1.80;;;1.10;;
5456;SDS011;2751;49.802;9.944;2022-09-17T03:00:16;0.67;;;0.67;;
5456;SDS011;2751;49.802;9.944;2022-09-17T03:02:46;1.23;;;0.87;;
5456;SDS011;2751;49.802;9.944;2022-09-17T03:05:16;2.10;;;1.17;;
5456;SDS011;2751;49.802;9.944;2022-09-17T03:07:45;2.10;;;1.10;;
5456;SDS011;2751;49.802;9.944;2022-09-17T03:10:12;2.77;;;1.23;;
5456;SDS011;2751;49.802;9.944;2022-09-17T03:12:40;0.83;;;0.83;;
5456;SDS011;2751;49.802;9.944;2022-09-17T03:15:07;3.10;;;1.20;;
5456;SDS011;2751;49.802;9.944;2022-09-17T03:17:34;1.77;;;1.10;;
5456;SDS011;2751;49.802;9.944;2022-09-17T03:20:03;3.57;;;0.93;;
5456;SDS011;2751;49.802;9.944;2022-09-17T03:22:31;3.27;;;1.20;;
5456;SDS011;2751;49.802;9.944;2022-09-17T03:24:58;1.10;;;1.00;;
5456;SDS011;2751;49.802;9.944;2022-09-17T03:27:25;1.80;;;1.20;;
5456;SDS011;2751;49.802;9.944;2022-09-17T03:29:51;1.93;;;1.20;;
5456;SDS011;2751;49.802;9.944;2022-09-17T03:32:18;2.20;;;1.03;;
5456;SDS011;2751;49.802;9.944;2022-09-17T03:34:45;5.50;;;1.30;;
5456;SDS011;2751;49.802;9.944;2022-09-17T03:37:13;1.50;;;1.13;;
5456;SDS011;2751;49.802;9.944;2022-09-17T03:39:40;1.70;;;1.30;;
5456;SDS011;2751;49.802;9.944;2022-09-17T03:42:07;1.40;;;1.30;;
5456;SDS011;2751;49.802;9.944;2022-09-17T03:44:34;2.93;;;1.20;;
5456;SDS011;2751;49.802;9.944;2022-09-17T03:47:01;4.30;;;1.00;;
5456;SDS011;2751;49.802;9.944;2022-09-17T03:49:28;2.60;;;1.03;;
5456;SDS011;2751;49.802;9.944;2022-09-17T03:51:55;1.80;;;1.00;;
5456;SDS011;2751;49.802;9.944;2022-09-17T03:54:23;3.50;;;1.27;;
5456;SDS011;2751;49.802;9.944;2022-09-17T03:56:50;9.63;;;1.50;;
5456;SDS011;2751;49.802;9.944;2022-09-17T03:59:17;2.50;;;1.23;;
5456;SDS011;2751;49.802;9.944;2022-09-17T04:01:44;4.30;;;1.40;;
5456;SDS011;2751;49.802;9.944;2022-09-17T04:04:10;5.03;;;1.10;;
5456;SDS011;2751;49.802;9.944;2022-09-17T04:06:37;3.97;;;1.63;;
5456;SDS011;2751;49.802;9.944;2022-09-17T04:09:04;8.13;;;1.70;;
5456;SDS011;2751;49.802;9.944;2022-09-17T04:11:33;6.47;;;1.93;;
5456;SDS011;2751;49.802;9.944;2022-09-17T04:13:59;1.63;;;1.43;;
5456;SDS011;2751;49.802;9.944;2022-09-17T04:16:26;4.20;;;1.70;;
5456;SDS011;2751;49.802;9.944;2022-09-17T04:18:53;3.33;;;1.57;;
5456;SDS011;2751;49.802;9.944;2022-09-17T04:21:20;5.37;;;1.87;;
5456;SDS011;2751;49.802;9.944;2022-09-17T04:23:47;8.03;;;1.80;;
5456;SDS011;2751;49.802;9.944;2022-09-17T04:26:14;18.17;;;1.50;;
5456;SDS011;2751;49.802;9.944;2022-09-17T04:28:42;2.40;;;2.00;;
5456;SDS011;2751;49.802;9.944;2022-09-17T04:31:09;10.73;;;2.13;;
5456;SDS011;2751;49.802;9.944;2022-09-17T04:33:35;3.80;;;2.40;;
5456;SDS011;2751;49.802;9.944;2022-09-17T04:36:02;4.40;;;1.67;;
5456;SDS011;2751;49.802;9.944;2022-09-17T04:38:29;10.70;;;3.10;;
5456;SDS011;2751;49.802;9.944;2022-09-17T04:40:57;5.63;;;2.47;;
5456;SDS011;2751;49.802;9.944;2022-09-17T04:43:24;8.43;;;3.07;;
5456;SDS011;2751;49.802;9.944;2022-09-17T04:45:52;3.80;;;2.90;;
5456;SDS011;2751;49.802;9.944;2022-09-17T04:48:19;5.97;;;3.10;;
5456;SDS011;2751;49.802;9.944;2022-09-17T04:50:46;6.87;;;3.00;;
5456;SDS011;2751;49.802;9.944;2022-09-17T04:53:13;6.00;;;3.70;;
5456;SDS011;2751;49.802;9.944;2022-09-17T04:55:41;7.60;;;3.37;;
5456;SDS011;2751;49.802;9.944;2022-09-17T04:58:08;8.97;;;4.00;;
5456;SDS011;2751;49.802;9.944;2022-09-17T05:00:35;11.20;;;3.93;;
5456;SDS011;2751;49.802;9.944;2022-09-17T05:03:04;10.10;;;3.60;;
5456;SDS011;2751;49.802;9.944;2022-09-17T05:05:31;5.13;;;3.20;;
5456;SDS011;2751;49.802;9.944;2022-09-17T05:07:57;8.00;;;3.00;;
5456;SDS011;2751;49.802;9.944;2022-09-17T05:10:24;6.63;;;3.37;;
5456;SDS011;2751;49.802;9.944;2022-09-17T05:12:52;12.70;;;4.00;;
5456;SDS011;2751;49.802;9.944;2022-09-17T05:15:20;8.73;;;3.07;;
5456;SDS011;2751;49.802;9.944;2022-09-17T05:17:48;2.00;;;1.77;;
5456;SDS011;2751;49.802;9.944;2022-09-17T05:20:17;3.80;;;3.10;;
5456;SDS011;2751;49.802;9.944;2022-09-17T05:22:45;6.60;;;3.03;;
5456;SDS011;2751;49.802;9.944;2022-09-17T05:25:14;2.23;;;1.67;;
5456;SDS011;2751;49.802;9.944;2022-09-17T05:27:42;4.33;;;3.10;;
5456;SDS011;2751;49.802;9.944;2022-09-17T05:30:09;7.20;;;3.57;;
5456;SDS011;2751;49.802;9.944;2022-09-17T05:32:37;3.40;;;1.47;;
5456;SDS011;2751;49.802;9.944;2022-09-17T05:35:05;11.07;;;2.93;;
5456;SDS011;2751;49.802;9.944;2022-09-17T05:37:34;14.27;;;3.10;;
5456;SDS011;2751;49.802;9.944;2022-09-17T05:40:01;8.60;;;4.03;;
5456;SDS011;2751;49.802;9.944;2022-09-17T05:42:28;8.57;;;3.77;;
5456;SDS011;2751;49.802;9.944;2022-09-17T05:44:55;5.53;;;3.23;;
5456;SDS011;2751;49.802;9.944;2022-09-17T05:47:22;3.43;;;1.80;;
5456;SDS011;2751;49.802;9.944;2022-09-17T05:49:49;9.13;;;3.13;;
5456;SDS011;2751;49.802;9.944;2022-09-17T05:52:16;1.40;;;1.30;;
5456;SDS011;2751;49.802;9.944;2022-09-17T05:54:44;6.77;;;2.60;;
5456;SDS011;2751;49.802;9.944;2022-09-17T05:57:12;5.17;;;3.27;;
5456;SDS011;2751;49.802;9.944;2022-09-17T05:59:40;5.07;;;2.20;;
5456;SDS011;2751;49.802;9.944;2022-09-17T06:02:08;2.83;;;2.10;;
5456;SDS011;2751;49.802;9.944;2022-09-17T06:04:37;5.13;;;2.53;;
5456;SDS011;2751;49.802;9.944;2022-09-17T06:07:04;2.60;;;2.40;;
5456;SDS011;2751;49.802;9.944;2022-09-17T06:09:33;3.43;;;2.20;;
5456;SDS011;2751;49.802;9.944;2022-09-17T06:12:03;3.37;;;2.00;;
5456;SDS011;2751;49.802;9.944;2022-09-17T06:14:30;2.33;;;1.87;;
5456;SDS011;2751;49.802;9.944;2022-09-17T06:16:57;2.70;;;1.90;;
5456;SDS011;2751;49.802;9.944;2022-09-17T06:19:24;2.27;;;2.17;;
5456;SDS011;2751;49.802;9.944;2022-09-17T06:21:52;2.23;;;2.03;;
5456;SDS011;2751;49.802;9.944;2022-09-17T06:24:19;4.33;;;2.70;;
5456;SDS011;2751;49.802;9.944;2022-09-17T06:26:46;4.40;;;2.40;;
5456;SDS011;2751;49.802;9.944;2022-09-17T06:29:14;3.20;;;2.10;;
5456;SDS011;2751;49.802;9.944;2022-09-17T06:31:41;4.93;;;2.37;;
5456;SDS011;2751;49.802;9.944;2022-09-17T06:34:11;3.63;;;2.10;;
5456;SDS011;2751;49.802;9.944;2022-09-17T06:36:38;3.03;;;2.63;;
5456;SDS011;2751;49.802;9.944;2022-09-17T06:39:05;2.20;;;2.00;;
5456;SDS011;2751;49.802;9.944;2022-09-17T06:41:32;1.70;;;1.60;;
5456;SDS011;2751;49.802;9.944;2022-09-17T06:43:59;3.07;;;2.10;;
5456;SDS011;2751;49.802;9.944;2022-09-17T06:46:27;11.03;;;1.87;;
5456;SDS011;2751;49.802;9.944;2022-09-17T06:48:54;1.77;;;1.57;;
5456;SDS011;2751;49.802;9.944;2022-09-17T06:51:21;3.43;;;2.37;;
5456;SDS011;2751;49.802;9.944;2022-09-17T06:53:48;2.00;;;1.90;;
5456;SDS011;2751;49.802;9.944;2022-09-17T06:56:15;2.60;;;2.30;;
5456;SDS011;2751;49.802;9.944;2022-09-17T06:58:42;1.80;;;1.70;;
5456;SDS011;2751;49.802;9.944;2022-09-17T07:01:09;2.20;;;2.00;;
5456;SDS011;2751;49.802;9.944;2022-09-17T07:03:40;3.43;;;1.43;;
5456;SDS011;2751;49.802;9.944;2022-09-17T07:06:08;3.23;;;2.30;;
5456;SDS011;2751;49.802;9.944;2022-09-17T07:08:35;1.53;;;1.30;;
5456;SDS011;2751;49.802;9.944;2022-09-17T07:11:03;3.17;;;1.90;;
5456;SDS011;2751;49.802;9.944;2022-09-17T07:13:32;3.63;;;1.83;;
5456;SDS011;2751;49.802;9.944;2022-09-17T07:15:59;3.90;;;2.20;;
5456;SDS011;2751;49.802;9.944;2022-09-17T07:18:27;3.63;;;2.10;;
5456;SDS011;2751;49.802;9.944;2022-09-17T07:20:57;1.17;;;1.03;;
5456;SDS011;2751;49.802;9.944;2022-09-17T07:23:25;5.13;;;2.07;;
5456;SDS011;2751;49.802;9.944;2022-09-17T07:25:53;1.63;;;1.53;;
5456;SDS011;2751;49.802;9.944;2022-09-17T07:28:21;1.90;;;1.27;;
5456;SDS011;2751;49.802;9.944;2022-09-17T07:30:49;5.43;;;1.80;;
5456;SDS011;2751;49.802;9.944;2022-09-17T07:33:18;3.67;;;1.87;;
5456;SDS011;2751;49.802;9.944;2022-09-17T07:35:51;3.40;;;2.20;;
5456;SDS011;2751;49.802;9.944;2022-09-17T07:38:20;5.17;;;2.00;;
5456;SDS011;2751;49.802;9.944;2022-09-17T07:40:54;16.73;;;2.27;;
5456;SDS011;2751;49.802;9.944;2022-09-17T07:43:22;2.17;;;1.83;;
5456;SDS011;2751;49.802;9.944;2022-09-17T07:45:50;4.17;;;1.80;;
5456;SDS011;2751;49.802;9.944;2022-09-17T07:48:17;8.67;;;2.10;;
5456;SDS011;2751;49.802;9.944;2022-09-17T07:50:44;2.50;;;2.30;;
5456;SDS011;2751;49.802;9.944;2022-09-17T07:53:11;3.43;;;1.90;;
5456;SDS011;2751;49.802;9.944;2022-09-17T07:55:40;5.43;;;2.40;;
5456;SDS011;2751;49.802;9.944;2022-09-17T07:58:07;4.57;;;1.83;;
5456;SDS011;2751;49.802;9.944;2022-09-17T08:00:34;6.77;;;2.10;;
5456;SDS011;2751;49.802;9.944;2022-09-17T08:03:01;5.13;;;1.80;;
5456;SDS011;2751;49.802;9.944;2022-09-17T08:05:28;7.93;;;2.03;;
5456;SDS011;2751;49.802;9.944;2022-09-17T08:07:54;2.83;;;1.70;;
5456;SDS011;2751;49.802;9.944;2022-09-17T08:10:21;2.80;;;1.60;;
5456;SDS011;2751;49.802;9.944;2022-09-17T08:12:54;4.10;;;1.60;;
5456;SDS011;2751;49.802;9.944;2022-09-17T08:15:22;7.97;;;1.90;;
5456;SDS011;2751;49.802;9.944;2022-09-17T08:17:49;7.83;;;2.03;;
5456;SDS011;2751;49.802;9.944;2022-09-17T08:20:16;4.30;;;1.87;;
5456;SDS011;2751;49.802;9.944;2022-09-17T08:22:44;3.63;;;1.50;;
5456;SDS011;2751;49.802;9.944;2022-09-17T08:25:11;2.93;;;1.57;;
5456;SDS011;2751;49.802;9.944;2022-09-17T08:27:37;6.77;;;2.13;;
5456;SDS011;2751;49.802;9.944;2022-09-17T08:30:06;1.57;;;1.47;;
5456;SDS011;2751;49.802;9.944;2022-09-17T08:32:35;4.40;;;1.97;;
5456;SDS011;2751;49.802;9.944;2022-09-17T08:35:02;3.17;;;1.73;;
5456;SDS011;2751;49.802;9.944;2022-09-17T08:37:29;7.77;;;2.27;;
5456;SDS011;2751;49.802;9.944;2022-09-17T08:39:56;3.00;;;1.87;;
5456;SDS011;2751;49.802;9.944;2022-09-17T08:42:24;5.27;;;2.17;;
5456;SDS011;2751;49.802;9.944;2022-09-17T08:44:57;4.10;;;1.60;;
5456;SDS011;2751;49.802;9.944;2022-09-17T08:47:26;3.40;;;1.90;;
5456;SDS011;2751;49.802;9.944;2022-09-17T08:49:57;5.83;;;1.70;;
5456;SDS011;2751;49.802;9.944;2022-09-17T08:52:31;4.73;;;1.87;;
5456;SDS011;2751;49.802;9.944;2022-09-17T08:55:22;4.60;;;1.60;;
5456;SDS011;2751;49.802;9.944;2022-09-17T08:58:00;2.83;;;1.60;;
5456;SDS011;2751;49.802;9.944;2022-09-17T09:00:56;3.30;;;2.40;;
5456;SDS011;2751;49.802;9.944;2022-09-17T09:03:35;6.33;;;2.70;;
5456;SDS011;2751;49.802;9.944;2022-09-17T09:06:12;5.27;;;2.27;;
5456;SDS011;2751;49.802;9.944;2022-09-17T09:08:41;2.43;;;1.43;;
5456;SDS011;2751;49.802;9.944;2022-09-17T09:11:13;6.90;;;2.17;;
5456;SDS011;2751;49.802;9.944;2022-09-17T09:13:43;1.90;;;1.70;;
5456;SDS011;2751;49.802;9.944;2022-09-17T09:16:13;4.23;;;1.83;;
5456;SDS011;2751;49.802;9.944;2022-09-17T09:18:44;3.00;;;1.50;;
5456;SDS011;2751;49.802;9.944;2022-09-17T09:21:18;3.90;;;2.13;;
5456;SDS011;2751;49.802;9.944;2022-09-17T09:23:51;5.00;;;1.90;;
5456;SDS011;2751;49.802;9.944;2022-09-17T09:26:23;4.40;;;2.17;;
5456;SDS011;2751;49.802;9.944;2022-09-17T09:29:03;6.43;;;2.23;;
5456;SDS011;2751;49.802;9.944;2022-09-17T09:31:39;7.17;;;2.30;;
5456;SDS011;2751;49.802;9.944;2022-09-17T09:34:17;2.37;;;1.73;;
5456;SDS011;2751;49.802;9.944;2022-09-17T09:36:44;5.43;;;3.20;;
5456;SDS011;2751;49.802;9.944;2022-09-17T09:39:13;4.63;;;2.53;;
5456;SDS011;2751;49.802;9.944;2022-09-17T09:41:46;4.20;;;2.20;;
5456;SDS011;2751;49.802;9.944;2022-09-17T09:44:16;2.10;;;1.40;;
5456;SDS011;2751;49.802;9.944;2022-09-17T09:49:54;4.37;;;2.00;;
5456;SDS011;2751;49.802;9.944;2022-09-17T09:52:39;3.17;;;2.00;;
5456;SDS011;2751;49.802;9.944;2022-09-17T09:55:19;3.43;;;2.00;;
5456;SDS011;2751;49.802;9.944;2022-09-17T09:58:02;2.93;;;2.10;;
5456;SDS011;2751;49.802;9.944;2022-09-17T10:00:37;3.33;;;2.17;;
5456;SDS011;2751;49.802;9.944;2022-09-17T10:03:09;6.33;;;2.30;;
5456;SDS011;2751;49.802;9.944;2022-09-17T10:05:52;8.07;;;1.63;;
5456;SDS011;2751;49.802;9.944;2022-09-17T10:08:21;2.30;;;1.47;;
5456;SDS011;2751;49.802;9.944;2022-09-17T10:10:58;5.13;;;2.00;;
5456;SDS011;2751;49.802;9.944;2022-09-17T10:13:27;3.57;;;1.90;;
5456;SDS011;2751;49.802;9.944;2022-09-17T10:15:55;3.53;;;1.80;;
5456;SDS011;2751;49.802;9.944;2022-09-17T10:18:23;3.27;;;1.73;;
5456;SDS011;2751;49.802;9.944;2022-09-17T10:20:53;4.03;;;1.90;;
5456;SDS011;2751;49.802;9.944;2022-09-17T10:23:21;2.93;;;1.63;;
5456;SDS011;2751;49.802;9.944;2022-09-17T10:25:50;2.87;;;1.67;;
5456;SDS011;2751;49.802;9.944;2022-09-17T10:28:27;2.30;;;1.20;;
5456;SDS011;2751;49.802;9.944;2022-09-17T10:31:06;2.27;;;1.20;;
5456;SDS011;2751;49.802;9.944;2022-09-17T10:33:37;2.30;;;1.53;;
5456;SDS011;2751;49.802;9.944;2022-09-17T10:36:13;2.30;;;1.33;;
5456;SDS011;2751;49.802;9.944;2022-09-17T10:38:41;5.67;;;1.40;;
5456;SDS011;2751;49.802;9.944;2022-09-17T10:41:11;4.17;;;1.93;;
5456;SDS011;2751;49.802;9.944;2022-09-17T10:43:40;3.37;;;1.67;;
5456;SDS011;2751;49.802;9.944;2022-09-17T10:46:08;2.97;;;1.80;;
5456;SDS011;2751;49.802;9.944;2022-09-17T10:48:40;1.30;;;1.17;;
5456;SDS011;2751;49.802;9.944;2022-09-17T10:51:10;3.90;;;2.13;;
5456;SDS011;2751;49.802;9.944;2022-09-17T10:54:12;3.10;;;1.87;;
5456;SDS011;2751;49.802;9.944;2022-09-17T10:56:45;3.37;;;1.73;;
5456;SDS011;2751;49.802;9.944;2022-09-17T10:59:29;1.70;;;1.57;;
5456;SDS011;2751;49.802;9.944;2022-09-17T11:02:22;5.07;;;1.77;;
5456;SDS011;2751;49.802;9.944;2022-09-17T11:05:24;2.73;;;1.67;;
5456;SDS011;2751;49.802;9.944;2022-09-17T11:08:09;1.57;;;1.30;;
5456;SDS011;2751;49.802;9.944;2022-09-17T11:10:43;4.93;;;2.00;;
5456;SDS011;2751;49.802;9.944;2022-09-17T11:13:17;6.43;;;2.60;;
5456;SDS011;2751;49.802;9.944;2022-09-17T11:15:54;4.03;;;2.30;;
5456;SDS011;2751;49.802;9.944;2022-09-17T11:18:41;4.03;;;2.07;;
5456;SDS011;2751;49.802;9.944;2022-09-17T11:21:32;2.73;;;1.97;;
5456;SDS011;2751;49.802;9.944;2022-09-17T11:27:07;3.90;;;2.13;;
5456;SDS011;2751;49.802;9.944;2022-09-17T11:29:44;2.10;;;1.03;;
5456;SDS011;2751;49.802;9.944;2022-09-17T11:32:29;2.00;;;1.10;;
5456;SDS011;2751;49.802;9.944;2022-09-17T11:35:06;8.63;;;1.50;;
5456;SDS011;2751;49.802;9.944;2022-09-17T11:37:37;2.70;;;1.10;;
5456;SDS011;2751;49.802;9.944;2022-09-17T11:40:15;2.93;;;1.60;;
5456;SDS011;2751;49.802;9.944;2022-09-17T11:42:46;5.80;;;2.00;;
5456;SDS011;2751;49.802;9.944;2022-09-17T11:45:18;3.37;;;1.60;;
5456;SDS011;2751;49.802;9.944;2022-09-17T11:47:48;2.53;;;1.20;;
5456;SDS011;2751;49.802;9.944;2022-09-17T11:50:21;2.03;;;1.57;;
5456;SDS011;2751;49.802;9.944;2022-09-17T11:52:57;2.47;;;1.20;;
5456;SDS011;2751;49.802;9.944;2022-09-17T11:55:32;1.60;;;1.50;;
5456;SDS011;2751;49.802;9.944;2022-09-17T11:58:08;2.63;;;1.80;;
5456;SDS011;2751;49.802;9.944;2022-09-17T12:00:41;3.37;;;2.17;;
5456;SDS011;2751;49.802;9.944;2022-09-17T12:03:15;2.73;;;1.60;;
5456;SDS011;2751;49.802;9.944;2022-09-17T12:05:49;7.43;;;1.60;;
5456;SDS011;2751;49.802;9.944;2022-09-17T12:08:19;3.23;;;1.60;;
5456;SDS011;2751;49.802;9.944;2022-09-17T12:10:54;4.33;;;2.03;;
5456;SDS011;2751;49.802;9.944;2022-09-17T12:13:29;6.03;;;2.47;;
5456;SDS011;2751;49.802;9.944;2022-09-17T12:16:03;4.67;;;2.40;;
5456;SDS011;2751;49.802;9.944;2022-09-17T12:18:48;5.67;;;2.87;;
5456;SDS011;2751;49.802;9.944;2022-09-17T12:21:20;3.13;;;2.20;;
5456;SDS011;2751;49.802;9.944;2022-09-17T12:23:53;3.43;;;2.00;;
5456;SDS011;2751;49.802;9.944;2022-09-17T12:26:27;4.90;;;2.30;;
5456;SDS011;2751;49.802;9.944;2022-09-17T12:29:13;2.53;;;1.87;;
5456;SDS011;2751;49.802;9.944;2022-09-17T12:31:55;5.77;;;2.20;;
5456;SDS011;2751;49.802;9.944;2022-09-17T12:34:30;6.67;;;2.30;;
5456;SDS011;2751;49.802;9.944;2022-09-17T12:37:07;2.53;;;1.40;;
5456;SDS011;2751;49.802;9.944;2022-09-17T12:39:46;2.50;;;1.57;;
5456;SDS011;2751;49.802;9.944;2022-09-17T12:42:33;3.30;;;2.00;;
5456;SDS011;2751;49.802;9.944;2022-09-17T12:45:13;2.63;;;1.23;;
5456;SDS011;2751;49.802;9.944;2022-09-17T12:47:56;1.40;;;1.30;;
5456;SDS011;2751;49.802;9.944;2022-09-17T12:50:43;2.30;;;1.23;;
5456;SDS011;2751;49.802;9.944;2022-09-17T12:53:20;1.30;;;0.80;;
5456;SDS011;2751;49.802;9.944;2022-09-17T12:56:02;1.93;;;1.23;;
5456;SDS011;2751;49.802;9.944;2022-09-17T13:01:29;1.57;;;1.07;;
5456;SDS011;2751;49.802;9.944;2022-09-17T13:04:05;2.53;;;1.37;;
5456;SDS011;2751;49.802;9.944;2022-09-17T13:06:53;1.83;;;1.13;;
5456;SDS011;2751;49.802;9.944;2022-09-17T13:09:40;1.10;;;1.00;;
5456;SDS011;2751;49.802;9.944;2022-09-17T13:12:38;5.70;;;1.30;;
5456;SDS011;2751;49.802;9.944;2022-09-17T13:15:25;2.70;;;1.10;;
5456;SDS011;2751;49.802;9.944;2022-09-17T13:18:12;1.27;;;1.03;;
5456;SDS011;2751;49.802;9.944;2022-09-17T13:20:46;3.03;;;1.33;;
5456;SDS011;2751;49.802;9.944;2022-09-17T13:23:32;5.33;;;0.70;;
5456;SDS011;2751;49.802;9.944;2022-09-17T13:26:03;5.80;;;1.37;;
5456;SDS011;2751;49.802;9.944;2022-09-17T13:28:41;2.43;;;1.00;;
5456;SDS011;2751;49.802;9.944;2022-09-17T13:31:11;2.40;;;1.10;;
5456;SDS011;2751;49.802;9.944;2022-09-17T13:33:54;3.30;;;1.20;;
5456;SDS011;2751;49.802;9.944;2022-09-17T13:39:37;1.77;;;1.20;;
5456;SDS011;2751;49.802;9.944;2022-09-17T13:42:08;1.23;;;0.90;;
5456;SDS011;2751;49.802;9.944;2022-09-17T13:44:44;1.80;;;1.10;;
5456;SDS011;2751;49.802;9.944;2022-09-17T13:47:17;1.53;;;1.00;;
5456;SDS011;2751;49.802;9.944;2022-09-17T13:49:48;0.80;;;0.73;;
5456;SDS011;2751;49.802;9.944;2022-09-17T13:52:27;2.67;;;0.80;;
5456;SDS011;2751;49.802;9.944;2022-09-17T13:55:03;3.87;;;0.90;;
5456;SDS011;2751;49.802;9.944;2022-09-17T13:57:31;1.17;;;0.70;;
5456;SDS011;2751;49.802;9.944;2022-09-17T14:00:27;1.77;;;1.57;;
5456;SDS011;2751;49.802;9.944;2022-09-17T14:09:28;4.20;;;1.03;;
5456;SDS011;2751;49.802;9.944;2022-09-17T14:11:58;2.30;;;0.80;;
5456;SDS011;2751;49.802;9.944;2022-09-17T14:14:45;1.03;;;0.70;;
5456;SDS011;2751;49.802;9.944;2022-09-17T14:20:17;0.63;;;0.63;;
5456;SDS011;2751;49.802;9.944;2022-09-17T14:22:53;2.30;;;0.70;;
5456;SDS011;2751;49.802;9.944;2022-09-17T14:25:21;2.57;;;0.80;;
5456;SDS011;2751;49.802;9.944;2022-09-17T14:27:57;2.40;;;0.60;;
5456;SDS011;2751;49.802;9.944;2022-09-17T14:30:28;7.83;;;1.00;;
5456;SDS011;2751;49.802;9.944;2022-09-17T14:33:01;0.90;;;0.77;;
5456;SDS011;2751;49.802;9.944;2022-09-17T14:35:33;1.27;;;1.10;;
5456;SDS011;2751;49.802;9.944;2022-09-17T14:38:02;2.60;;;0.60;;
5456;SDS011;2751;49.802;9.944;2022-09-17T14:40:39;2.63;;;1.10;;
5456;SDS011;2751;49.802;9.944;2022-09-17T14:43:09;0.87;;;0.63;;
5456;SDS011;2751;49.802;9.944;2022-09-17T14:45:43;5.93;;;0.80;;
5456;SDS011;2751;49.802;9.944;2022-09-17T14:48:18;1.23;;;0.70;;
5456;SDS011;2751;49.802;9.944;2022-09-17T14:50:52;2.10;;;0.80;;
5456;SDS011;2751;49.802;9.944;2022-09-17T14:53:36;0.70;;;0.57;;
5456;SDS011;2751;49.802;9.944;2022-09-17T14:56:02;2.13;;;0.97;;
5456;SDS011;2751;49.802;9.944;2022-09-17T14:58:35;0.87;;;0.77;;
5456;SDS011;2751;49.802;9.944;2022-09-17T15:01:05;2.80;;;0.90;;
5456;SDS011;2751;49.802;9.944;2022-09-17T15:03:48;1.87;;;0.90;;
5456;SDS011;2751;49.802;9.944;2022-09-17T15:06:18;1.17;;;0.73;;
5456;SDS011;2751;49.802;9.944;2022-09-17T15:08:46;1.83;;;0.70;;
5456;SDS011;2751;49.802;9.944;2022-09-17T15:11:12;2.00;;;0.70;;
5456;SDS011;2751;49.802;9.944;2022-09-17T15:13:41;2.00;;;0.70;;
5456;SDS011;2751;49.802;9.944;2022-09-17T15:16:12;1.00;;;0.70;;
5456;SDS011;2751;49.802;9.944;2022-09-17T15:18:46;0.87;;;0.80;;
5456;SDS011;2751;49.802;9.944;2022-09-17T15:21:19;1.00;;;0.70;;
5456;SDS011;2751;49.802;9.944;2022-09-17T15:23:52;1.57;;;0.43;;
5456;SDS011;2751;49.802;9.944;2022-09-17T15:26:24;2.30;;;0.70;;
5456;SDS011;2751;49.802;9.944;2022-09-17T15:28:55;4.47;;;0.90;;
5456;SDS011;2751;49.802;9.944;2022-09-17T15:31:24;1.30;;;1.10;;
5456;SDS011;2751;49.802;9.944;2022-09-17T15:33:55;1.00;;;0.73;;
5456;SDS011;2751;49.802;9.944;2022-09-17T15:36:24;2.37;;;0.80;;
5456;SDS011;2751;49.802;9.944;2022-09-17T15:38:54;0.90;;;0.67;;
5456;SDS011;2751;49.802;9.944;2022-09-17T15:44:07;1.43;;;0.70;;
5456;SDS011;2751;49.802;9.944;2022-09-17T15:46:43;1.80;;;0.77;;
5456;SDS011;2751;49.802;9.944;2022-09-17T15:49:30;1.47;;;1.33;;
5456;SDS011;2751;49.802;9.944;2022-09-17T15:54:52;0.70;;;0.60;;
5456;SDS011;2751;49.802;9.944;2022-09-17T15:57:19;1.33;;;0.57;;
5456;SDS011;2751;49.802;9.944;2022-09-17T15:59:48;2.77;;;1.00;;
5456;SDS011;2751;49.802;9.944;2022-09-17T16:02:23;1.93;;;0.70;;
5456;SDS011;2751;49.802;9.944;2022-09-17T16:05:07;1.00;;;0.80;;
5456;SDS011;2751;49.802;9.944;2022-09-17T16:10:59;0.63;;;0.63;;
5456;SDS011;2751;49.802;9.944;2022-09-17T16:13:26;1.03;;;0.50;;
5456;SDS011;2751;49.802;9.944;2022-09-17T16:15:53;1.37;;;0.50;;